CheckWX is a tool to help pilots better visualize weather data.  It is not intended as a substitute for an official pre-flight weather briefing.

15:39:31 UTC

EGMC TAF
Southend Airport
Southend, United Kingdom
TAF EGMC 221400Z 2215/2224 24008KT 9999 FEW045

Aug-22@
15:00 UTC

Aug-22 @ 15:00 UTC

Aug-23@
00:00 UTC

Aug-23 @ 00:00 UTC

TAF EGMC 221400Z 2215/2224 24008KT 9999 FEW045
Wind
  • 240° at 8 KTS
Cloud Levels
  • Few at 4,500' AGL